TAFOR
Diposting tanggal: 30 Agustus 2018

Pukul : 05.00 UTC

Isi :

TAF AMD WAGI 160500Z 1606/1618 VRB05KT 9999 SCT012 TEMPO 1607/1611 3000 -TSRA FEW012CB BKN012 BECMG 1611/1613 00000KT 6000=